Peotone Weather
Station Historical Data
 
Daily Summary for April 24, 2018 Units:  English    Metric   Both
« Previous Day
Next Day »
Daily Weekly Monthly Yearly Custom
  Current: High: Low: Average:
Temperature: 48.7 °F 49.8 °F 46.2 °F 48.3 °F
Dew Point: 47.0 °F 48.7 °F 44.8 °F 47 °F
Humidity: 94% 96% 94% 95%
Wind Speed: 0.0mph 8.1mph 0.0mph 2.9mph
Wind Gust: 3.4mph 10.3mph - -
WindCalm - - NE
Pressure: 30.06 in 30.09 in 30.04 in -
Precipitation: 0.01 in      
Historical Graphs
 
 
Tabular Data for April 24, 2018
Time Temperature Dew Point Pressure Wind Wind Speed Wind Gust Humidity Rainfall Rate (Hourly) solar Conditions
00:00 47.3 °F 45.9 °F 30.09 in NE 5.8 mph 8.1 mph 95% 0.01 in 0.00 W/m2
00:05 47.3 °F 45.9 °F 30.09 in NE 4.6 mph 9.2 mph 95% 0.00 in 0.00 W/m2
00:10 47.4 °F 46.0 °F 30.09 in NNE 5.8 mph 10.3 mph 95% 0.00 in 0.00 W/m2
00:15 47.7 °F 46.3 °F 30.09 in NE 4.6 mph 10.3 mph 95% 0.00 in 0.00 W/m2
00:20 47.8 °F 46.4 °F 30.08 in NE 8.1 mph 8.1 mph 95% 0.00 in 0.00 W/m2
00:25 48.0 °F 46.6 °F 30.08 in ENE 2.3 mph 4.6 mph 95% 0.00 in 0.00 W/m2
00:30 48.2 °F 46.8 °F 30.08 in NE 1.1 mph 1.1 mph 95% 0.00 in 0.00 W/m2
00:35 48.2 °F 46.8 °F 30.08 in NE 6.9 mph 6.9 mph 95% 0.00 in 0.00 W/m2
00:36 48.2 °F 46.8 °F 30.08 in NE 1.1 mph 6.9 mph 95% 0.00 in 0.00 W/m2
00:40 48.2 °F 46.8 °F 30.08 in NE 4.6 mph 6.9 mph 95% 0.00 in 0.00 W/m2
00:41 48.2 °F 46.8 °F 30.08 in NE 2.3 mph 4.6 mph 95% 0.00 in 0.00 W/m2
00:45 48.4 °F 47.0 °F 30.08 in NE 2.3 mph 8.1 mph 95% 0.00 in 0.00 W/m2
00:46 48.4 °F 47.0 °F 30.08 in NE 4.6 mph 4.6 mph 95% 0.00 in 0.00 W/m2
00:50 48.6 °F 47.2 °F 30.08 in NE 3.5 mph 6.9 mph 95% 0.00 in 0.00 W/m2
00:51 48.6 °F 47.2 °F 30.08 in NE 2.3 mph 3.4 mph 95% 0.00 in 0.00 W/m2
00:55 48.8 °F 47.4 °F 30.08 in NE 1.1 mph 5.8 mph 95% 0.00 in 0.00 W/m2
00:56 48.8 °F 47.4 °F 30.08 in NE 4.6 mph 4.6 mph 95% 0.00 in 0.00 W/m2
01:00 49.0 °F 47.6 °F 30.08 in NE 3.5 mph 6.9 mph 95% 0.00 in 0.00 W/m2
01:05 49.2 °F 48.1 °F 30.07 in NE 4.6 mph 5.8 mph 96% 0.00 in 0.00 W/m2
01:06 49.2 °F 48.1 °F 30.07 in NE 1.1 mph 4.6 mph 96% 0.00 in 0.00 W/m2
01:10 49.2 °F 48.1 °F 30.07 in NE 3.5 mph 6.9 mph 96% 0.00 in 0.00 W/m2
01:11 49.2 °F 48.1 °F 30.07 in NE 1.1 mph 3.4 mph 96% 0.00 in 0.00 W/m2
01:15 49.3 °F 48.2 °F 30.07 in Calm   4.6 mph 96% 0.00 in 0.00 W/m2
01:16 49.3 °F 48.2 °F 30.07 in NE 2.3 mph 3.4 mph 96% 0.00 in 0.00 W/m2
01:20 49.3 °F 48.2 °F 30.07 in NE 2.3 mph 5.8 mph 96% 0.00 in 0.00 W/m2
01:21 49.3 °F 48.2 °F 30.07 in NE 3.4 mph 5.8 mph 96% 0.00 in 0.00 W/m2
01:25 49.2 °F 48.1 °F 30.07 in Calm   5.8 mph 96% 0.00 in 0.00 W/m2
01:26 49.2 °F 48.1 °F 30.07 in NE 3.4 mph 3.4 mph 96% 0.00 in 0.00 W/m2
01:30 49.2 °F 48.1 °F 30.07 in NE 3.5 mph 4.6 mph 96% 0.00 in 0.00 W/m2
01:31 49.3 °F 48.2 °F 30.07 in NE 2.3 mph 3.4 mph 96% 0.00 in 0.00 W/m2
01:35 49.4 °F 48.3 °F 30.06 in NE 3.5 mph 6.9 mph 96% 0.00 in 0.00 W/m2
01:37 49.4 °F 48.3 °F 30.06 in NE 3.4 mph 3.4 mph 96% 0.00 in 0.00 W/m2
01:42 49.5 °F 48.4 °F 30.06 in NE 2.3 mph 3.4 mph 96% 0.00 in 0.00 W/m2
01:45 49.5 °F 48.4 °F 30.06 in NE 2.3 mph 4.6 mph 96% 0.00 in 0.00 W/m2
01:47 49.5 °F 48.4 °F 30.06 in NE 1.1 mph 4.6 mph 96% 0.00 in 0.00 W/m2
01:50 49.6 °F 48.5 °F 30.06 in NE 3.5 mph 8.1 mph 96% 0.00 in 0.00 W/m2
01:52 49.6 °F 48.5 °F 30.06 in NE 3.4 mph 6.9 mph 96% 0.00 in 0.00 W/m2
01:55 49.5 °F 48.4 °F 30.06 in NE 5.8 mph 8.1 mph 96% 0.00 in 0.00 W/m2
01:57 49.4 °F 48.3 °F 30.06 in NE 2.3 mph 5.8 mph 96% 0.00 in 0.00 W/m2
02:00 49.4 °F 48.3 °F 30.06 in NE 4.6 mph 5.8 mph 96% 0.00 in 0.00 W/m2
02:02 49.4 °F 48.3 °F 30.06 in NE 5.8 mph 8.1 mph 96% 0.00 in 0.00 W/m2
02:05 49.5 °F 48.4 °F 30.06 in NE 2.3 mph 8.1 mph 96% 0.00 in 0.00 W/m2
02:07 49.6 °F 48.5 °F 30.06 in NE 5.8 mph 5.8 mph 96% 0.00 in 0.00 W/m2
02:10 49.7 °F 48.6 °F 30.06 in Calm   5.8 mph 96% 0.00 in 0.00 W/m2
02:12 49.7 °F 48.6 °F 30.06 in NE 2.3 mph 6.9 mph 96% 0.00 in 0.00 W/m2
02:15 49.8 °F 48.7 °F 30.06 in NE 2.3 mph 6.9 mph 96% 0.00 in 0.00 W/m2
02:17 49.7 °F 48.6 °F 30.06 in NE 5.8 mph 6.9 mph 96% 0.00 in 0.00 W/m2
02:20 49.6 °F 48.5 °F 30.06 in Calm   6.9 mph 96% 0.00 in 0.00 W/m2
02:22 49.5 °F 48.4 °F 30.06 in NE 3.4 mph 6.9 mph 96% 0.00 in 0.00 W/m2
02:25 49.4 °F 48.3 °F 30.06 in NE 1.1 mph 8.1 mph 96% 0.00 in 0.00 W/m2
02:27 49.2 °F 48.1 °F 30.06 in NE 3.4 mph 8.1 mph 96% 0.00 in 0.00 W/m2
02:30 49.2 °F 48.1 °F 30.06 in NE 4.6 mph 8.1 mph 96% 0.00 in 0.00 W/m2
02:32 49.1 °F 48.0 °F 30.06 in NE 5.8 mph 6.9 mph 96% 0.00 in 0.00 W/m2
02:35 49.0 °F 47.9 °F 30.06 in NE 2.3 mph 6.9 mph 96% 0.00 in 0.00 W/m2
02:37 48.9 °F 47.5 °F 30.06 in NE 1.1 mph 5.8 mph 95% 0.00 in 0.00 W/m2
02:40 48.8 °F 47.4 °F 30.06 in NE 1.1 mph 5.8 mph 95% 0.00 in 0.00 W/m2
02:43 48.7 °F 47.3 °F 30.06 in Calm   3.4 mph 95% 0.00 in 0.00 W/m2
02:45 48.7 °F 47.3 °F 30.06 in NE 1.1 mph 5.8 mph 95% 0.00 in 0.00 W/m2
02:48 48.6 °F 47.5 °F 30.06 in NE 5.8 mph 5.8 mph 96% 0.00 in 0.00 W/m2
02:50 48.6 °F 47.5 °F 30.06 in NE 2.3 mph 5.8 mph 96% 0.00 in 0.00 W/m2
02:53 48.5 °F 47.4 °F 30.06 in Calm   5.8 mph 96% 0.00 in 0.00 W/m2
02:55 48.5 °F 47.4 °F 30.06 in NE 5.8 mph 6.9 mph 96% 0.00 in 0.00 W/m2
02:58 48.5 °F 47.4 °F 30.06 in NE 5.8 mph 5.8 mph 96% 0.00 in 0.00 W/m2
03:03 48.4 °F 47.3 °F 30.07 in Calm     96% 0.00 in 0.00 W/m2
03:08 48.4 °F 47.3 °F 30.07 in NE 1.1 mph 4.6 mph 96% 0.00 in 0.00 W/m2
03:13 48.4 °F 47.3 °F 30.06 in NE 1.1 mph 4.6 mph 96% 0.00 in 0.00 W/m2
03:18 48.4 °F 47.3 °F 30.06 in NE 2.3 mph 4.6 mph 96% 0.00 in 0.00 W/m2
03:23 48.4 °F 47.0 °F 30.06 in NE 4.6 mph 8.1 mph 95% 0.00 in 0.00 W/m2
03:28 48.3 °F 46.9 °F 30.06 in NE 1.1 mph 6.9 mph 95% 0.00 in 0.00 W/m2
03:33 48.2 °F 46.8 °F 30.06 in NE 3.4 mph 6.9 mph 95% 0.00 in 0.00 W/m2
03:39 48.2 °F 46.8 °F 30.06 in NE 2.3 mph 9.2 mph 95% 0.00 in 0.00 W/m2
03:44 48.2 °F 46.8 °F 30.06 in NE 3.4 mph 6.9 mph 95% 0.00 in 0.00 W/m2
03:49 48.2 °F 46.8 °F 30.06 in NE 4.6 mph 5.8 mph 95% 0.00 in 0.00 W/m2
03:54 48.2 °F 46.8 °F 30.06 in Calm   4.6 mph 95% 0.00 in 0.00 W/m2
03:59 48.1 °F 46.7 °F 30.06 in NE 1.1 mph 4.6 mph 95% 0.00 in 0.00 W/m2
04:04 48.0 °F 46.6 °F 30.05 in NE 3.4 mph 6.9 mph 95% 0.00 in 0.00 W/m2
04:09 48.0 °F 46.6 °F 30.06 in NE 3.4 mph 4.6 mph 95% 0.00 in 0.00 W/m2
04:14 47.9 °F 46.5 °F 30.05 in NE 1.1 mph 4.6 mph 95% 0.00 in 0.00 W/m2
04:19 47.8 °F 46.4 °F 30.05 in NE 2.3 mph 6.9 mph 95% 0.00 in 0.00 W/m2
04:24 47.8 °F 46.4 °F 30.05 in NE 6.9 mph 6.9 mph 95% 0.00 in 0.00 W/m2
04:29 47.9 °F 46.5 °F 30.04 in NE 4.6 mph 9.2 mph 95% 0.00 in 0.00 W/m2
04:34 47.9 °F 46.5 °F 30.04 in NNE 3.4 mph 8.1 mph 95% 0.00 in 0.00 W/m2
04:40 47.9 °F 46.5 °F 30.04 in NE 4.6 mph 9.2 mph 95% 0.00 in 0.00 W/m2
04:45 47.9 °F 46.5 °F 30.04 in NE 3.4 mph 5.8 mph 95% 0.00 in 0.00 W/m2
04:50 47.8 °F 46.4 °F 30.04 in NNE 3.4 mph 6.9 mph 95% 0.01 in 0.00 W/m2
04:55 47.6 °F 46.2 °F 30.04 in NE 2.3 mph 6.9 mph 95% 0.01 in 0.00 W/m2
05:00 47.3 °F 45.9 °F 30.04 in NE 2.3 mph 5.8 mph 95% 0.01 in 0.00 W/m2
05:05 47.0 °F 45.7 °F 30.04 in NNE 3.4 mph 6.9 mph 95% 0.01 in 0.00 W/m2
05:10 46.7 °F 45.3 °F 30.04 in Calm   6.9 mph 95% 0.01 in 0.00 W/m2
05:15 46.5 °F 45.2 °F 30.04 in NNE 1.1 mph 5.8 mph 95% 0.01 in 0.00 W/m2
05:20 46.3 °F 45.0 °F 30.04 in NNE 2.3 mph 6.9 mph 95% 0.01 in 0.00 W/m2
05:25 46.2 °F 44.8 °F 30.05 in NNE 4.6 mph 5.8 mph 95% 0.01 in 0.00 W/m2
05:30 46.3 °F 45.0 °F 30.05 in NE 3.4 mph 4.6 mph 95% 0.01 in 0.00 W/m2
05:35 46.3 °F 45.0 °F 30.05 in NE 3.4 mph 6.9 mph 95% 0.01 in 0.00 W/m2
05:40 46.3 °F 45.0 °F 30.05 in NE 2.3 mph 3.4 mph 95% 0.01 in 0.00 W/m2
05:46 46.3 °F 45.0 °F 30.05 in NE 1.1 mph 3.4 mph 95% 0.00 in 0.00 W/m2
05:47 46.3 °F 45.0 °F 30.05 in NE 4.6 mph 5.8 mph 95% 0.00 in 0.00 W/m2
05:52 46.3 °F 45.0 °F 30.05 in NE 5.8 mph 6.9 mph 95% 0.00 in 0.00 W/m2
05:57 46.3 °F 45.0 °F 30.05 in NE 3.4 mph 6.9 mph 95% 0.00 in 0.00 W/m2
06:02 46.3 °F 45.0 °F 30.05 in NE 2.3 mph 3.4 mph 95% 0.00 in 0.00 W/m2
06:07 46.3 °F 45.0 °F 30.05 in NE 4.6 mph 4.6 mph 95% 0.00 in 5.00 W/m2
06:12 46.4 °F 45.0 °F 30.05 in NNE 3.4 mph 4.6 mph 95% 0.00 in 9.00 W/m2
06:17 46.4 °F 45.0 °F 30.05 in NNE 1.1 mph 4.6 mph 95% 0.00 in 12.00 W/m2
06:22 46.5 °F 45.2 °F 30.05 in NNE 1.1 mph 3.4 mph 95% 0.00 in 14.00 W/m2
06:27 46.7 °F 45.3 °F 30.05 in NNE 3.4 mph 6.9 mph 95% 0.00 in 19.00 W/m2
06:32 46.7 °F 45.3 °F 30.05 in North 1.1 mph 6.9 mph 95% 0.00 in 30.00 W/m2
06:37 46.8 °F 45.5 °F 30.05 in NE 3.4 mph 8.1 mph 95% 0.00 in 46.00 W/m2
06:43 47.0 °F 45.7 °F 30.05 in NNE 3.4 mph 6.9 mph 95% 0.00 in 60.00 W/m2
06:48 47.5 °F 46.1 °F 30.05 in NNE 1.1 mph 4.6 mph 95% 0.00 in 69.00 W/m2
06:53 47.9 °F 46.5 °F 30.05 in North 3.4 mph 5.8 mph 95% 0.00 in 62.00 W/m2
06:58 48.1 °F 46.7 °F 30.05 in NNE 2.3 mph 6.9 mph 95% 0.00 in 56.00 W/m2
07:03 48.2 °F 46.8 °F 30.05 in NNE 1.1 mph 6.9 mph 95% 0.00 in 63.00 W/m2
07:08 48.5 °F 46.9 °F 30.05 in NNW 5.8 mph 6.9 mph 94% 0.00 in 69.00 W/m2
07:13 48.5 °F 46.9 °F 30.05 in North 1.1 mph 6.9 mph 94% 0.00 in 67.00 W/m2
07:18 48.7 °F 47.0 °F 30.06 in Calm   3.4 mph 94% 0.00 in 65.00 W/m2
Juneau County Weather
Compliments of Weather Underground - 2 mb